sensor_id;sensor_type;location;lat;lon;timestamp;P1;durP1;ratioP1;P2;durP2;ratioP2
61471;SDS011;47337;54.068;12.114;2024-01-11T00:00:08;24.92;;;11.57;;
61471;SDS011;47337;54.068;12.114;2024-01-11T00:02:35;24.08;;;11.15;;
61471;SDS011;47337;54.068;12.114;2024-01-11T00:05:00;24.48;;;10.57;;
61471;SDS011;47337;54.068;12.114;2024-01-11T00:07:26;24.60;;;10.80;;
61471;SDS011;47337;54.068;12.114;2024-01-11T00:09:52;24.25;;;10.75;;
61471;SDS011;47337;54.068;12.114;2024-01-11T00:12:17;26.20;;;11.30;;
61471;SDS011;47337;54.068;12.114;2024-01-11T00:14:42;23.58;;;10.15;;
61471;SDS011;47337;54.068;12.114;2024-01-11T00:17:07;30.75;;;11.82;;
61471;SDS011;47337;54.068;12.114;2024-01-11T00:19:33;25.88;;;10.63;;
61471;SDS011;47337;54.068;12.114;2024-01-11T00:21:58;25.35;;;11.43;;
61471;SDS011;47337;54.068;12.114;2024-01-11T00:24:23;26.52;;;11.45;;
61471;SDS011;47337;54.068;12.114;2024-01-11T00:26:48;24.10;;;10.75;;
61471;SDS011;47337;54.068;12.114;2024-01-11T00:29:13;22.90;;;10.82;;
61471;SDS011;47337;54.068;12.114;2024-01-11T00:31:39;23.58;;;10.57;;
61471;SDS011;47337;54.068;12.114;2024-01-11T00:34:04;23.95;;;10.82;;
61471;SDS011;47337;54.068;12.114;2024-01-11T00:36:29;25.27;;;10.75;;
61471;SDS011;47337;54.068;12.114;2024-01-11T00:38:55;25.67;;;10.55;;
61471;SDS011;47337;54.068;12.114;2024-01-11T00:41:20;24.52;;;10.98;;
61471;SDS011;47337;54.068;12.114;2024-01-11T00:43:45;22.95;;;10.10;;
61471;SDS011;47337;54.068;12.114;2024-01-11T00:46:11;22.30;;;9.75;;
61471;SDS011;47337;54.068;12.114;2024-01-11T00:48:36;23.55;;;10.52;;
61471;SDS011;47337;54.068;12.114;2024-01-11T00:51:03;26.52;;;10.95;;
61471;SDS011;47337;54.068;12.114;2024-01-11T00:53:28;22.02;;;10.00;;
61471;SDS011;47337;54.068;12.114;2024-01-11T00:55:56;24.27;;;11.43;;
61471;SDS011;47337;54.068;12.114;2024-01-11T00:58:22;25.35;;;11.02;;
61471;SDS011;47337;54.068;12.114;2024-01-11T01:00:47;23.88;;;10.93;;
61471;SDS011;47337;54.068;12.114;2024-01-11T01:03:12;20.63;;;9.85;;
61471;SDS011;47337;54.068;12.114;2024-01-11T01:05:37;25.80;;;10.80;;
61471;SDS011;47337;54.068;12.114;2024-01-11T01:08:03;30.23;;;12.00;;
61471;SDS011;47337;54.068;12.114;2024-01-11T01:10:28;25.35;;;11.60;;
61471;SDS011;47337;54.068;12.114;2024-01-11T01:12:53;28.48;;;12.13;;
61471;SDS011;47337;54.068;12.114;2024-01-11T01:15:21;29.17;;;11.50;;
61471;SDS011;47337;54.068;12.114;2024-01-11T01:17:49;28.80;;;11.82;;
61471;SDS011;47337;54.068;12.114;2024-01-11T01:20:14;24.88;;;10.70;;
61471;SDS011;47337;54.068;12.114;2024-01-11T01:22:39;29.02;;;12.18;;
61471;SDS011;47337;54.068;12.114;2024-01-11T01:25:05;29.70;;;12.23;;
61471;SDS011;47337;54.068;12.114;2024-01-11T01:27:30;28.85;;;12.73;;
61471;SDS011;47337;54.068;12.114;2024-01-11T01:29:55;27.15;;;12.50;;
61471;SDS011;47337;54.068;12.114;2024-01-11T01:32:21;25.38;;;12.07;;
61471;SDS011;47337;54.068;12.114;2024-01-11T01:34:46;30.27;;;11.90;;
61471;SDS011;47337;54.068;12.114;2024-01-11T01:37:11;27.85;;;11.57;;
61471;SDS011;47337;54.068;12.114;2024-01-11T01:39:39;27.15;;;10.90;;
61471;SDS011;47337;54.068;12.114;2024-01-11T01:42:05;23.25;;;11.43;;
61471;SDS011;47337;54.068;12.114;2024-01-11T01:44:31;24.30;;;11.27;;
61471;SDS011;47337;54.068;12.114;2024-01-11T01:46:56;24.73;;;11.23;;
61471;SDS011;47337;54.068;12.114;2024-01-11T01:49:21;23.60;;;11.38;;
61471;SDS011;47337;54.068;12.114;2024-01-11T01:51:47;26.58;;;12.50;;
61471;SDS011;47337;54.068;12.114;2024-01-11T01:54:12;21.60;;;10.57;;
61471;SDS011;47337;54.068;12.114;2024-01-11T01:56:40;22.42;;;10.48;;
61471;SDS011;47337;54.068;12.114;2024-01-11T01:59:05;26.42;;;10.43;;
61471;SDS011;47337;54.068;12.114;2024-01-11T02:01:33;21.75;;;9.48;;
61471;SDS011;47337;54.068;12.114;2024-01-11T02:03:59;21.95;;;9.73;;
61471;SDS011;47337;54.068;12.114;2024-01-11T02:06:25;19.55;;;9.32;;
61471;SDS011;47337;54.068;12.114;2024-01-11T02:08:53;22.85;;;10.32;;
61471;SDS011;47337;54.068;12.114;2024-01-11T02:11:20;22.08;;;10.77;;
61471;SDS011;47337;54.068;12.114;2024-01-11T02:13:45;22.00;;;10.23;;
61471;SDS011;47337;54.068;12.114;2024-01-11T02:16:11;24.92;;;10.55;;
61471;SDS011;47337;54.068;12.114;2024-01-11T02:18:37;24.40;;;10.40;;
61471;SDS011;47337;54.068;12.114;2024-01-11T02:21:02;20.73;;;9.23;;
61471;SDS011;47337;54.068;12.114;2024-01-11T02:23:29;22.77;;;10.18;;
61471;SDS011;47337;54.068;12.114;2024-01-11T02:25:57;23.02;;;9.43;;
61471;SDS011;47337;54.068;12.114;2024-01-11T02:28:22;18.58;;;9.43;;
61471;SDS011;47337;54.068;12.114;2024-01-11T02:30:50;20.65;;;9.82;;
61471;SDS011;47337;54.068;12.114;2024-01-11T02:33:17;21.33;;;9.93;;
61471;SDS011;47337;54.068;12.114;2024-01-11T02:35:43;22.65;;;9.40;;
61471;SDS011;47337;54.068;12.114;2024-01-11T02:38:09;18.85;;;9.10;;
61471;SDS011;47337;54.068;12.114;2024-01-11T02:40:34;20.25;;;9.38;;
61471;SDS011;47337;54.068;12.114;2024-01-11T02:43:09;25.40;;;9.63;;
61471;SDS011;47337;54.068;12.114;2024-01-11T02:45:39;22.55;;;9.60;;
61471;SDS011;47337;54.068;12.114;2024-01-11T02:48:04;21.05;;;8.75;;
61471;SDS011;47337;54.068;12.114;2024-01-11T02:50:30;22.27;;;9.75;;
61471;SDS011;47337;54.068;12.114;2024-01-11T02:52:57;21.35;;;9.50;;
61471;SDS011;47337;54.068;12.114;2024-01-11T02:55:22;18.65;;;8.65;;
61471;SDS011;47337;54.068;12.114;2024-01-11T02:57:48;23.02;;;10.18;;
61471;SDS011;47337;54.068;12.114;2024-01-11T03:00:13;22.00;;;9.55;;
61471;SDS011;47337;54.068;12.114;2024-01-11T03:02:41;18.60;;;8.80;;
61471;SDS011;47337;54.068;12.114;2024-01-11T03:05:07;21.27;;;9.45;;
61471;SDS011;47337;54.068;12.114;2024-01-11T03:07:34;22.75;;;9.68;;
61471;SDS011;47337;54.068;12.114;2024-01-11T03:09:59;19.63;;;8.70;;
61471;SDS011;47337;54.068;12.114;2024-01-11T03:12:25;17.92;;;8.52;;
61471;SDS011;47337;54.068;12.114;2024-01-11T03:14:51;22.20;;;9.13;;
61471;SDS011;47337;54.068;12.114;2024-01-11T03:17:16;23.67;;;9.52;;
61471;SDS011;47337;54.068;12.114;2024-01-11T03:19:41;23.10;;;9.57;;
61471;SDS011;47337;54.068;12.114;2024-01-11T03:22:07;24.77;;;10.50;;
61471;SDS011;47337;54.068;12.114;2024-01-11T03:24:32;21.08;;;8.68;;
61471;SDS011;47337;54.068;12.114;2024-01-11T03:26:58;16.42;;;7.85;;
61471;SDS011;47337;54.068;12.114;2024-01-11T03:29:23;17.70;;;8.30;;
61471;SDS011;47337;54.068;12.114;2024-01-11T03:31:50;19.77;;;9.07;;
61471;SDS011;47337;54.068;12.114;2024-01-11T03:34:18;20.27;;;8.55;;
61471;SDS011;47337;54.068;12.114;2024-01-11T03:36:43;18.10;;;8.25;;
61471;SDS011;47337;54.068;12.114;2024-01-11T03:39:10;18.83;;;8.63;;
61471;SDS011;47337;54.068;12.114;2024-01-11T03:41:36;19.00;;;9.05;;
61471;SDS011;47337;54.068;12.114;2024-01-11T03:44:03;20.73;;;8.40;;
61471;SDS011;47337;54.068;12.114;2024-01-11T03:46:31;17.73;;;8.77;;
61471;SDS011;47337;54.068;12.114;2024-01-11T03:48:56;19.52;;;9.60;;
61471;SDS011;47337;54.068;12.114;2024-01-11T03:51:21;21.95;;;9.85;;
61471;SDS011;47337;54.068;12.114;2024-01-11T03:53:47;19.23;;;8.95;;
61471;SDS011;47337;54.068;12.114;2024-01-11T03:56:12;20.13;;;9.00;;
61471;SDS011;47337;54.068;12.114;2024-01-11T03:58:37;22.73;;;9.32;;
61471;SDS011;47337;54.068;12.114;2024-01-11T04:01:06;19.23;;;8.90;;
61471;SDS011;47337;54.068;12.114;2024-01-11T04:03:33;20.95;;;9.20;;
61471;SDS011;47337;54.068;12.114;2024-01-11T04:05:58;22.85;;;9.95;;
61471;SDS011;47337;54.068;12.114;2024-01-11T04:08:23;23.02;;;9.18;;
61471;SDS011;47337;54.068;12.114;2024-01-11T04:10:49;20.02;;;8.90;;
61471;SDS011;47337;54.068;12.114;2024-01-11T04:13:14;22.35;;;9.35;;
61471;SDS011;47337;54.068;12.114;2024-01-11T04:15:39;21.08;;;9.40;;
61471;SDS011;47337;54.068;12.114;2024-01-11T04:18:07;19.67;;;8.55;;
61471;SDS011;47337;54.068;12.114;2024-01-11T04:20:35;19.92;;;9.30;;
61471;SDS011;47337;54.068;12.114;2024-01-11T04:23:00;21.05;;;9.25;;
61471;SDS011;47337;54.068;12.114;2024-01-11T04:25:25;25.30;;;10.30;;
61471;SDS011;47337;54.068;12.114;2024-01-11T04:27:50;21.73;;;10.00;;
61471;SDS011;47337;54.068;12.114;2024-01-11T04:30:16;20.73;;;8.60;;
61471;SDS011;47337;54.068;12.114;2024-01-11T04:32:41;23.80;;;8.93;;
61471;SDS011;47337;54.068;12.114;2024-01-11T04:35:09;23.30;;;9.48;;
61471;SDS011;47337;54.068;12.114;2024-01-11T04:37:36;22.95;;;8.65;;
61471;SDS011;47337;54.068;12.114;2024-01-11T04:40:01;26.30;;;10.68;;
61471;SDS011;47337;54.068;12.114;2024-01-11T04:42:31;20.55;;;9.02;;
61471;SDS011;47337;54.068;12.114;2024-01-11T04:44:56;23.83;;;10.00;;
61471;SDS011;47337;54.068;12.114;2024-01-11T04:47:21;26.42;;;10.80;;
61471;SDS011;47337;54.068;12.114;2024-01-11T04:49:46;19.60;;;9.13;;
61471;SDS011;47337;54.068;12.114;2024-01-11T04:52:14;25.27;;;9.80;;
61471;SDS011;47337;54.068;12.114;2024-01-11T04:54:39;22.23;;;9.40;;
61471;SDS011;47337;54.068;12.114;2024-01-11T04:57:07;23.55;;;9.00;;
61471;SDS011;47337;54.068;12.114;2024-01-11T04:59:32;22.13;;;8.05;;
61471;SDS011;47337;54.068;12.114;2024-01-11T05:01:57;24.33;;;10.07;;
61471;SDS011;47337;54.068;12.114;2024-01-11T05:04:22;22.52;;;9.25;;
61471;SDS011;47337;54.068;12.114;2024-01-11T05:06:48;21.48;;;9.05;;
61471;SDS011;47337;54.068;12.114;2024-01-11T05:09:13;20.88;;;9.10;;
61471;SDS011;47337;54.068;12.114;2024-01-11T05:11:39;25.63;;;10.35;;
61471;SDS011;47337;54.068;12.114;2024-01-11T05:14:07;19.77;;;8.98;;
61471;SDS011;47337;54.068;12.114;2024-01-11T05:16:32;21.48;;;8.82;;
61471;SDS011;47337;54.068;12.114;2024-01-11T05:18:57;21.83;;;9.13;;
61471;SDS011;47337;54.068;12.114;2024-01-11T05:21:23;22.10;;;9.10;;
61471;SDS011;47337;54.068;12.114;2024-01-11T05:23:48;16.90;;;7.75;;
61471;SDS011;47337;54.068;12.114;2024-01-11T05:26:14;22.50;;;9.35;;
61471;SDS011;47337;54.068;12.114;2024-01-11T05:28:40;21.60;;;9.55;;
61471;SDS011;47337;54.068;12.114;2024-01-11T05:31:06;19.02;;;8.50;;
61471;SDS011;47337;54.068;12.114;2024-01-11T05:33:32;19.77;;;9.25;;
61471;SDS011;47337;54.068;12.114;2024-01-11T05:35:57;18.83;;;8.02;;
61471;SDS011;47337;54.068;12.114;2024-01-11T05:38:25;17.25;;;8.93;;
61471;SDS011;47337;54.068;12.114;2024-01-11T05:40:52;19.73;;;8.60;;
61471;SDS011;47337;54.068;12.114;2024-01-11T05:43:20;16.58;;;7.57;;
61471;SDS011;47337;54.068;12.114;2024-01-11T05:45:45;18.38;;;8.65;;
61471;SDS011;47337;54.068;12.114;2024-01-11T05:48:10;15.90;;;7.00;;
61471;SDS011;47337;54.068;12.114;2024-01-11T05:50:36;20.63;;;8.95;;
61471;SDS011;47337;54.068;12.114;2024-01-11T05:53:01;20.30;;;8.07;;
61471;SDS011;47337;54.068;12.114;2024-01-11T05:55:26;17.63;;;7.60;;
61471;SDS011;47337;54.068;12.114;2024-01-11T05:57:52;17.05;;;7.18;;
61471;SDS011;47337;54.068;12.114;2024-01-11T06:00:17;18.50;;;8.15;;
61471;SDS011;47337;54.068;12.114;2024-01-11T06:02:42;19.85;;;8.13;;
61471;SDS011;47337;54.068;12.114;2024-01-11T06:05:08;18.95;;;8.63;;
61471;SDS011;47337;54.068;12.114;2024-01-11T06:07:33;17.95;;;7.78;;
61471;SDS011;47337;54.068;12.114;2024-01-11T06:09:58;18.80;;;8.32;;
61471;SDS011;47337;54.068;12.114;2024-01-11T06:12:26;18.65;;;7.93;;
61471;SDS011;47337;54.068;12.114;2024-01-11T06:14:51;20.08;;;8.27;;
61471;SDS011;47337;54.068;12.114;2024-01-11T06:17:16;22.15;;;8.55;;
61471;SDS011;47337;54.068;12.114;2024-01-11T06:19:44;20.98;;;8.05;;
61471;SDS011;47337;54.068;12.114;2024-01-11T06:22:09;20.23;;;7.85;;
61471;SDS011;47337;54.068;12.114;2024-01-11T06:24:34;16.55;;;7.68;;
61471;SDS011;47337;54.068;12.114;2024-01-11T06:27:00;18.90;;;8.20;;
61471;SDS011;47337;54.068;12.114;2024-01-11T06:29:25;19.50;;;7.75;;
61471;SDS011;47337;54.068;12.114;2024-01-11T06:31:53;19.38;;;7.50;;
61471;SDS011;47337;54.068;12.114;2024-01-11T06:34:18;19.77;;;8.13;;
61471;SDS011;47337;54.068;12.114;2024-01-11T06:36:46;20.13;;;7.70;;
61471;SDS011;47337;54.068;12.114;2024-01-11T06:39:12;20.67;;;8.23;;
61471;SDS011;47337;54.068;12.114;2024-01-11T06:41:38;20.92;;;7.70;;
61471;SDS011;47337;54.068;12.114;2024-01-11T06:44:03;23.40;;;8.93;;
61471;SDS011;47337;54.068;12.114;2024-01-11T06:46:28;24.00;;;8.90;;
61471;SDS011;47337;54.068;12.114;2024-01-11T06:48:56;17.20;;;7.68;;
61471;SDS011;47337;54.068;12.114;2024-01-11T06:51:24;25.85;;;9.20;;
61471;SDS011;47337;54.068;12.114;2024-01-11T06:53:49;20.13;;;7.55;;
61471;SDS011;47337;54.068;12.114;2024-01-11T06:56:19;19.88;;;6.88;;
61471;SDS011;47337;54.068;12.114;2024-01-11T06:58:46;23.25;;;8.52;;
61471;SDS011;47337;54.068;12.114;2024-01-11T07:01:11;21.60;;;7.53;;
61471;SDS011;47337;54.068;12.114;2024-01-11T07:03:37;20.40;;;7.22;;
61471;SDS011;47337;54.068;12.114;2024-01-11T07:06:02;21.55;;;8.32;;
61471;SDS011;47337;54.068;12.114;2024-01-11T07:08:28;15.48;;;6.45;;
61471;SDS011;47337;54.068;12.114;2024-01-11T07:10:54;16.13;;;6.57;;
61471;SDS011;47337;54.068;12.114;2024-01-11T07:13:19;16.27;;;6.40;;
61471;SDS011;47337;54.068;12.114;2024-01-11T07:15:47;20.55;;;6.53;;
61471;SDS011;47337;54.068;12.114;2024-01-11T07:18:13;15.35;;;6.13;;
61471;SDS011;47337;54.068;12.114;2024-01-11T07:20:38;17.58;;;7.40;;
61471;SDS011;47337;54.068;12.114;2024-01-11T07:23:04;15.10;;;5.78;;
61471;SDS011;47337;54.068;12.114;2024-01-11T07:25:29;18.42;;;6.93;;
61471;SDS011;47337;54.068;12.114;2024-01-11T07:27:55;14.02;;;5.85;;
61471;SDS011;47337;54.068;12.114;2024-01-11T07:30:20;20.55;;;7.22;;
61471;SDS011;47337;54.068;12.114;2024-01-11T07:32:45;21.52;;;7.53;;
61471;SDS011;47337;54.068;12.114;2024-01-11T07:35:11;18.20;;;6.53;;
61471;SDS011;47337;54.068;12.114;2024-01-11T07:37:37;17.27;;;6.75;;
61471;SDS011;47337;54.068;12.114;2024-01-11T07:40:03;16.33;;;6.57;;
61471;SDS011;47337;54.068;12.114;2024-01-11T07:42:29;16.55;;;5.82;;
61471;SDS011;47337;54.068;12.114;2024-01-11T07:44:56;16.23;;;6.25;;
61471;SDS011;47337;54.068;12.114;2024-01-11T07:47:22;12.30;;;6.13;;
61471;SDS011;47337;54.068;12.114;2024-01-11T07:49:49;13.02;;;4.82;;
61471;SDS011;47337;54.068;12.114;2024-01-11T07:52:14;13.80;;;5.25;;
61471;SDS011;47337;54.068;12.114;2024-01-11T07:54:39;12.57;;;5.47;;
61471;SDS011;47337;54.068;12.114;2024-01-11T07:57:05;20.75;;;6.40;;
61471;SDS011;47337;54.068;12.114;2024-01-11T07:59:33;13.07;;;5.57;;
61471;SDS011;47337;54.068;12.114;2024-01-11T08:02:01;15.52;;;6.45;;
61471;SDS011;47337;54.068;12.114;2024-01-11T08:04:28;13.98;;;5.40;;
61471;SDS011;47337;54.068;12.114;2024-01-11T08:06:54;18.25;;;6.57;;
61471;SDS011;47337;54.068;12.114;2024-01-11T08:09:19;16.98;;;7.30;;
61471;SDS011;47337;54.068;12.114;2024-01-11T08:11:44;13.23;;;5.65;;
61471;SDS011;47337;54.068;12.114;2024-01-11T08:14:11;13.70;;;5.45;;
61471;SDS011;47337;54.068;12.114;2024-01-11T08:16:36;13.73;;;5.63;;
61471;SDS011;47337;54.068;12.114;2024-01-11T08:19:01;17.15;;;6.07;;
61471;SDS011;47337;54.068;12.114;2024-01-11T08:21:26;12.55;;;5.45;;
61471;SDS011;47337;54.068;12.114;2024-01-11T08:23:53;13.15;;;6.05;;
61471;SDS011;47337;54.068;12.114;2024-01-11T08:26:18;14.05;;;5.30;;
61471;SDS011;47337;54.068;12.114;2024-01-11T08:28:44;12.27;;;5.75;;
61471;SDS011;47337;54.068;12.114;2024-01-11T08:31:10;16.88;;;5.95;;
61471;SDS011;47337;54.068;12.114;2024-01-11T08:33:35;13.35;;;6.07;;
61471;SDS011;47337;54.068;12.114;2024-01-11T08:36:02;19.08;;;6.35;;
61471;SDS011;47337;54.068;12.114;2024-01-11T08:38:28;12.82;;;6.25;;
61471;SDS011;47337;54.068;12.114;2024-01-11T08:40:54;14.45;;;5.55;;
61471;SDS011;47337;54.068;12.114;2024-01-11T08:43:23;13.35;;;5.03;;
61471;SDS011;47337;54.068;12.114;2024-01-11T08:45:48;13.35;;;5.63;;
61471;SDS011;47337;54.068;12.114;2024-01-11T08:48:14;12.50;;;5.50;;
61471;SDS011;47337;54.068;12.114;2024-01-11T08:50:39;10.85;;;4.97;;
61471;SDS011;47337;54.068;12.114;2024-01-11T08:53:04;12.60;;;5.25;;
61471;SDS011;47337;54.068;12.114;2024-01-11T08:55:30;19.10;;;6.25;;
61471;SDS011;47337;54.068;12.114;2024-01-11T08:57:55;14.60;;;6.63;;
61471;SDS011;47337;54.068;12.114;2024-01-11T09:00:20;21.50;;;7.93;;
61471;SDS011;47337;54.068;12.114;2024-01-11T09:02:48;15.15;;;7.05;;
61471;SDS011;47337;54.068;12.114;2024-01-11T09:05:16;14.80;;;6.30;;
61471;SDS011;47337;54.068;12.114;2024-01-11T09:07:42;21.25;;;7.85;;
61471;SDS011;47337;54.068;12.114;2024-01-11T09:10:07;14.80;;;7.03;;
61471;SDS011;47337;54.068;12.114;2024-01-11T09:12:38;16.20;;;7.03;;
61471;SDS011;47337;54.068;12.114;2024-01-11T09:15:04;17.48;;;6.75;;
61471;SDS011;47337;54.068;12.114;2024-01-11T09:17:31;13.85;;;5.03;;
61471;SDS011;47337;54.068;12.114;2024-01-11T09:19:57;15.25;;;6.22;;
61471;SDS011;47337;54.068;12.114;2024-01-11T09:22:22;12.13;;;5.55;;
61471;SDS011;47337;54.068;12.114;2024-01-11T09:24:48;12.50;;;4.97;;
61471;SDS011;47337;54.068;12.114;2024-01-11T09:27:13;12.55;;;5.40;;
61471;SDS011;47337;54.068;12.114;2024-01-11T09:29:45;11.02;;;5.57;;
61471;SDS011;47337;54.068;12.114;2024-01-11T09:32:13;13.30;;;4.38;;
61471;SDS011;47337;54.068;12.114;2024-01-11T09:34:38;14.30;;;5.35;;
61471;SDS011;47337;54.068;12.114;2024-01-11T09:37:03;11.98;;;5.35;;
61471;SDS011;47337;54.068;12.114;2024-01-11T09:39:29;8.40;;;4.85;;
61471;SDS011;47337;54.068;12.114;2024-01-11T09:44:29;11.63;;;4.88;;
61471;SDS011;47337;54.068;12.114;2024-01-11T09:46:55;11.70;;;5.68;;
61471;SDS011;47337;54.068;12.114;2024-01-11T09:49:21;13.57;;;4.90;;
61471;SDS011;47337;54.068;12.114;2024-01-11T09:51:47;12.50;;;5.15;;
61471;SDS011;47337;54.068;12.114;2024-01-11T09:54:12;13.95;;;4.82;;
61471;SDS011;47337;54.068;12.114;2024-01-11T09:56:41;9.80;;;4.88;;
61471;SDS011;47337;54.068;12.114;2024-01-11T09:59:10;11.10;;;4.55;;
61471;SDS011;47337;54.068;12.114;2024-01-11T10:01:35;9.70;;;4.95;;
61471;SDS011;47337;54.068;12.114;2024-01-11T10:04:05;10.02;;;4.97;;
61471;SDS011;47337;54.068;12.114;2024-01-11T10:06:32;8.93;;;4.32;;
61471;SDS011;47337;54.068;12.114;2024-01-11T10:08:58;8.20;;;4.07;;
61471;SDS011;47337;54.068;12.114;2024-01-11T10:11:26;7.82;;;3.97;;
61471;SDS011;47337;54.068;12.114;2024-01-11T10:13:57;6.95;;;3.72;;
61471;SDS011;47337;54.068;12.114;2024-01-11T10:16:26;8.02;;;3.90;;
61471;SDS011;47337;54.068;12.114;2024-01-11T10:18:55;6.90;;;3.38;;
61471;SDS011;47337;54.068;12.114;2024-01-11T10:21:21;6.43;;;4.18;;
61471;SDS011;47337;54.068;12.114;2024-01-11T10:23:46;7.35;;;3.53;;
61471;SDS011;47337;54.068;12.114;2024-01-11T10:26:11;8.02;;;3.22;;
61471;SDS011;47337;54.068;12.114;2024-01-11T10:28:37;9.27;;;3.63;;
61471;SDS011;47337;54.068;12.114;2024-01-11T10:31:05;6.18;;;3.35;;
61471;SDS011;47337;54.068;12.114;2024-01-11T10:33:33;6.00;;;2.65;;
61471;SDS011;47337;54.068;12.114;2024-01-11T10:35:59;6.15;;;3.17;;
61471;SDS011;47337;54.068;12.114;2024-01-11T10:38:25;5.07;;;2.95;;
61471;SDS011;47337;54.068;12.114;2024-01-11T10:40:51;7.13;;;3.15;;
61471;SDS011;47337;54.068;12.114;2024-01-11T10:43:19;6.78;;;3.35;;
61471;SDS011;47337;54.068;12.114;2024-01-11T10:45:47;7.93;;;2.65;;
61471;SDS011;47337;54.068;12.114;2024-01-11T10:48:13;6.13;;;3.08;;
61471;SDS011;47337;54.068;12.114;2024-01-11T10:50:45;8.13;;;3.22;;
61471;SDS011;47337;54.068;12.114;2024-01-11T10:55:49;8.25;;;3.38;;
61471;SDS011;47337;54.068;12.114;2024-01-11T10:58:17;6.57;;;3.53;;
61471;SDS011;47337;54.068;12.114;2024-01-11T11:00:43;6.25;;;3.42;;
61471;SDS011;47337;54.068;12.114;2024-01-11T11:03:09;6.75;;;3.35;;
61471;SDS011;47337;54.068;12.114;2024-01-11T11:05:36;8.05;;;3.25;;
61471;SDS011;47337;54.068;12.114;2024-01-11T11:08:01;6.60;;;3.53;;
61471;SDS011;47337;54.068;12.114;2024-01-11T11:10:30;5.50;;;2.58;;
61471;SDS011;47337;54.068;12.114;2024-01-11T11:12:56;7.80;;;3.22;;
61471;SDS011;47337;54.068;12.114;2024-01-11T11:15:24;7.30;;;3.28;;
61471;SDS011;47337;54.068;12.114;2024-01-11T11:17:51;8.75;;;3.38;;
61471;SDS011;47337;54.068;12.114;2024-01-11T11:20:18;5.82;;;3.38;;
61471;SDS011;47337;54.068;12.114;2024-01-11T11:22:48;10.45;;;4.47;;
61471;SDS011;47337;54.068;12.114;2024-01-11T11:25:25;6.22;;;3.40;;
61471;SDS011;47337;54.068;12.114;2024-01-11T11:27:53;6.40;;;3.40;;
61471;SDS011;47337;54.068;12.114;2024-01-11T11:30:18;7.55;;;3.35;;
61471;SDS011;47337;54.068;12.114;2024-01-11T11:32:45;5.90;;;3.65;;
61471;SDS011;47337;54.068;12.114;2024-01-11T11:35:10;11.15;;;3.70;;
61471;SDS011;47337;54.068;12.114;2024-01-11T11:37:36;8.18;;;3.67;;
61471;SDS011;47337;54.068;12.114;2024-01-11T11:40:02;8.00;;;4.32;;
61471;SDS011;47337;54.068;12.114;2024-01-11T11:42:27;7.75;;;4.30;;
61471;SDS011;47337;54.068;12.114;2024-01-11T11:44:55;10.10;;;3.83;;
61471;SDS011;47337;54.068;12.114;2024-01-11T11:47:23;5.45;;;3.13;;
61471;SDS011;47337;54.068;12.114;2024-01-11T11:50:07;9.77;;;3.90;;
61471;SDS011;47337;54.068;12.114;2024-01-11T11:52:33;9.50;;;3.58;;
61471;SDS011;47337;54.068;12.114;2024-01-11T11:55:00;11.57;;;4.90;;
61471;SDS011;47337;54.068;12.114;2024-01-11T11:57:26;9.50;;;4.25;;
61471;SDS011;47337;54.068;12.114;2024-01-11T11:59:53;8.55;;;4.30;;
61471;SDS011;47337;54.068;12.114;2024-01-11T12:02:19;10.50;;;4.88;;
61471;SDS011;47337;54.068;12.114;2024-01-11T12:04:47;7.03;;;3.78;;
61471;SDS011;47337;54.068;12.114;2024-01-11T12:07:13;10.20;;;4.60;;
61471;SDS011;47337;54.068;12.114;2024-01-11T12:09:43;9.10;;;4.13;;
61471;SDS011;47337;54.068;12.114;2024-01-11T12:12:08;13.02;;;4.03;;
61471;SDS011;47337;54.068;12.114;2024-01-11T12:14:34;9.00;;;4.80;;
61471;SDS011;47337;54.068;12.114;2024-01-11T12:17:00;11.15;;;4.75;;
61471;SDS011;47337;54.068;12.114;2024-01-11T12:19:25;6.80;;;3.83;;
61471;SDS011;47337;54.068;12.114;2024-01-11T12:21:50;7.53;;;4.72;;
61471;SDS011;47337;54.068;12.114;2024-01-11T12:24:16;8.55;;;4.43;;
61471;SDS011;47337;54.068;12.114;2024-01-11T12:26:44;8.27;;;4.47;;
61471;SDS011;47337;54.068;12.114;2024-01-11T12:29:09;13.32;;;5.30;;
61471;SDS011;47337;54.068;12.114;2024-01-11T12:31:35;8.98;;;4.45;;
61471;SDS011;47337;54.068;12.114;2024-01-11T12:34:00;8.40;;;3.60;;
61471;SDS011;47337;54.068;12.114;2024-01-11T12:36:26;10.20;;;4.18;;
61471;SDS011;47337;54.068;12.114;2024-01-11T12:38:51;7.03;;;3.92;;
61471;SDS011;47337;54.068;12.114;2024-01-11T12:41:17;11.73;;;4.47;;
61471;SDS011;47337;54.068;12.114;2024-01-11T12:43:42;8.05;;;4.50;;
61471;SDS011;47337;54.068;12.114;2024-01-11T12:46:07;8.60;;;4.93;;
61471;SDS011;47337;54.068;12.114;2024-01-11T12:48:33;6.57;;;4.10;;
61471;SDS011;47337;54.068;12.114;2024-01-11T12:50:58;14.43;;;4.85;;
61471;SDS011;47337;54.068;12.114;2024-01-11T12:53:24;6.10;;;3.70;;
61471;SDS011;47337;54.068;12.114;2024-01-11T12:56:01;11.20;;;4.10;;
61471;SDS011;47337;54.068;12.114;2024-01-11T12:58:27;9.55;;;4.20;;
61471;SDS011;47337;54.068;12.114;2024-01-11T13:00:52;7.47;;;3.65;;
61471;SDS011;47337;54.068;12.114;2024-01-11T13:03:20;7.55;;;2.95;;
61471;SDS011;47337;54.068;12.114;2024-01-11T13:05:48;7.53;;;4.05;;
61471;SDS011;47337;54.068;12.114;2024-01-11T13:08:13;7.97;;;3.85;;
61471;SDS011;47337;54.068;12.114;2024-01-11T13:10:38;7.18;;;3.67;;
61471;SDS011;47337;54.068;12.114;2024-01-11T13:13:04;11.70;;;3.65;;
61471;SDS011;47337;54.068;12.114;2024-01-11T13:15:30;9.07;;;3.58;;
61471;SDS011;47337;54.068;12.114;2024-01-11T13:17:56;8.27;;;3.80;;
61471;SDS011;47337;54.068;12.114;2024-01-11T13:20:22;9.70;;;3.88;;
61471;SDS011;47337;54.068;12.114;2024-01-11T13:22:47;10.65;;;3.88;;
61471;SDS011;47337;54.068;12.114;2024-01-11T13:25:12;7.45;;;3.53;;
61471;SDS011;47337;54.068;12.114;2024-01-11T13:27:38;8.93;;;4.25;;
61471;SDS011;47337;54.068;12.114;2024-01-11T13:30:03;6.07;;;4.07;;
61471;SDS011;47337;54.068;12.114;2024-01-11T13:32:29;9.40;;;3.92;;
61471;SDS011;47337;54.068;12.114;2024-01-11T13:34:54;10.60;;;4.38;;
61471;SDS011;47337;54.068;12.114;2024-01-11T13:37:20;8.82;;;4.88;;
61471;SDS011;47337;54.068;12.114;2024-01-11T13:39:45;9.07;;;4.50;;
61471;SDS011;47337;54.068;12.114;2024-01-11T13:42:13;13.85;;;4.45;;
61471;SDS011;47337;54.068;12.114;2024-01-11T13:44:38;10.55;;;5.10;;
61471;SDS011;47337;54.068;12.114;2024-01-11T13:47:04;13.20;;;5.95;;
61471;SDS011;47337;54.068;12.114;2024-01-11T13:49:29;9.40;;;4.53;;
61471;SDS011;47337;54.068;12.114;2024-01-11T13:51:54;7.40;;;5.00;;
61471;SDS011;47337;54.068;12.114;2024-01-11T13:54:19;9.20;;;4.35;;
61471;SDS011;47337;54.068;12.114;2024-01-11T13:56:47;7.47;;;4.72;;
61471;SDS011;47337;54.068;12.114;2024-01-11T13:59:12;8.52;;;4.28;;
61471;SDS011;47337;54.068;12.114;2024-01-11T14:01:37;10.05;;;4.80;;
61471;SDS011;47337;54.068;12.114;2024-01-11T14:04:02;16.33;;;5.30;;
61471;SDS011;47337;54.068;12.114;2024-01-11T14:06:28;7.90;;;4.30;;
61471;SDS011;47337;54.068;12.114;2024-01-11T14:08:56;10.85;;;5.10;;
61471;SDS011;47337;54.068;12.114;2024-01-11T14:11:22;9.13;;;4.25;;
61471;SDS011;47337;54.068;12.114;2024-01-11T14:13:47;8.30;;;4.20;;
61471;SDS011;47337;54.068;12.114;2024-01-11T14:16:13;11.35;;;4.38;;
61471;SDS011;47337;54.068;12.114;2024-01-11T14:18:41;13.27;;;4.93;;
61471;SDS011;47337;54.068;12.114;2024-01-11T14:21:06;13.05;;;4.50;;